Hlavní strana
METAR-TAF:

METAR-TAF

Letiště :

Letiště Rijeka

Rijeka, Chorvatsko

zeměpisná šířka: 45-13N, zeměpisná délka: 014-35E, výška: 85 m

Aktuální stav počasí

Zpráva byla vytvořena před 20 minutami, v 10:00 UTC
vítr z různých směrů 3 kt
Teplota 12°C
Vlhkost vzduchu 58%
Tlak 1025 hPa
Viditelnost 10 km a více
Žádná oblačnost pod 1500 m, nevyskytují se cumulonimby.

METAR: LDRI 181000Z VRB03KT CAVOK 12/04 Q1025

Čas: 11:20 (10:20 UTC)

Předpověď počasí

Zpráva byla vytvořena před 4 hodinami a 55 minutami, v 05:25 UTC
Předpověď platná od 18 v 06 UTC do 19 v 06 UTC
vítr z různých směrů 2 kt
Viditelnost 10 km a více
Žádná oblačnost pod 1500 m, nevyskytují se cumulonimby.
Dočasný
od 18 v 10 UTC do 18 v 16 UTC
Severozápadní vítr 6 kt

TAF: LDRI 180525Z 1806/1906 VRB02KT CAVOK TX15/1813Z TN04/1905Z TEMPO 1810/1816 32006KT

Stav a předpovědi počasí z více než 4 000 letišť (zprávy METAR a TAF).

Červené a žluté tečky na mapě představují dostupné meteorologické stanice.

Když kurzor umístíte na tečku, zobrazí se název stanice.

Pak kliknutím zobrazíte stav a předpověď počasí.

Chcete-li změnit mapu, kliknutím na zelené tlačítko se znaménkem +mapu přiblížíte, kliknutím na zelené tlačítko se znaménkem – mapu oddálíte a kliknutím na zelené šipky přejdete na sousední mapy.


METAR-TAF: